Time;durP1;ratioP1;P1;durP2;ratioP2;P2;SDS_P1;SDS_P2;PMS_P1;PMS_P2;Temp;Humidity;BMP_temperature;BMP_pressure;BME280_temperature;BME280_humidity;BME280_pressure;Samples;Min_cycle;Max_cycle;Signal;HPM_P1;HPM_P2
2021/10/27 00:01:10;;;;;;;17.57;11.35;;;;;;;6.08;69.17;95153.53;820556;71;29874;-76
2021/10/27 00:16:19;;;;;;;12.28;9.35;;;;;;;5.95;69.26;95145.58;821851;71;32810;-79
2021/10/27 00:31:18;;;;;;;11.22;8.88;;;;;;;5.85;69.42;95141.52;819725;71;32829;-77
2021/10/27 00:46:22;;;;;;;13.08;9.45;;;;;;;5.76;69.41;95128.13;819828;71;29802;-77
2021/10/27 01:01:08;;;;;;;13.45;9.75;;;;;;;5.70;69.21;95128.31;824916;71;29789;-78
2021/10/27 01:16:14;;;;;;;11.45;9.45;;;;;;;5.61;69.75;95134.43;827068;71;32783;-78
2021/10/27 01:31:15;;;;;;;16.97;12.07;;;;;;;5.56;70.01;95140.36;823271;71;33133;-75
2021/10/27 01:46:14;;;;;;;13.40;10.25;;;;;;;5.56;70.22;95129.95;833351;71;32751;-77
2021/10/27 02:01:29;;;;;;;14.28;11.43;;;;;;;5.50;70.65;95140.02;820535;71;32823;-78
2021/10/27 02:16:11;;;;;;;13.38;9.98;;;;;;;5.57;70.07;95152.86;827723;71;29762;-77
2021/10/27 02:31:17;;;;;;;14.07;10.23;;;;;;;5.54;69.61;95165.84;822138;71;32833;-79
2021/10/27 02:46:17;;;;;;;12.50;10.20;;;;;;;5.51;69.62;95161.63;827035;71;32669;-80
2021/10/27 03:16:14;;;;;;;11.60;8.55;;;;;;;5.31;69.90;95161.62;821250;71;32069;-78
2021/10/27 03:31:11;;;;;;;14.30;8.70;;;;;;;5.28;69.45;95177.69;828848;71;30530;-79
2021/10/27 03:46:10;;;;;;;11.73;8.33;;;;;;;5.12;70.50;95175.35;828036;71;29594;-79
2021/10/27 04:01:14;;;;;;;11.03;8.70;;;;;;;5.10;70.55;95177.40;827760;71;30271;-77
2021/10/27 04:16:16;;;;;;;12.28;10.13;;;;;;;4.95;71.48;95153.77;826461;71;33233;-77
2021/10/27 04:31:28;;;;;;;15.63;11.00;;;;;;;5.18;70.99;95179.61;833300;71;33303;-78
2021/10/27 04:46:20;;;;;;;15.13;11.15;;;;;;;5.03;70.75;95178.08;832994;71;32690;-77
2021/10/27 05:01:16;;;;;;;17.35;12.30;;;;;;;4.93;71.07;95194.30;825625;70;33271;-76
2021/10/27 05:16:28;;;;;;;20.25;13.95;;;;;;;4.87;71.73;95212.65;833523;71;32893;-75
2021/10/27 05:31:12;;;;;;;20.72;14.83;;;;;;;5.10;71.93;95229.94;827498;71;30047;-76
2021/10/27 05:46:19;;;;;;;26.97;16.55;;;;;;;8.30;65.63;95239.97;833622;71;33041;-75
2021/10/27 06:01:17;;;;;;;25.00;17.90;;;;;;;10.36;58.86;95250.17;833504;71;33358;-74
2021/10/27 06:16:09;;;;;;;28.35;20.97;;;;;;;10.91;55.98;95267.28;828469;71;30227;-75
2021/10/27 06:46:38;;;;;;;25.72;19.02;;;;;;;11.93;52.62;95296.11;835895;71;32725;-78
2021/10/27 07:46:44;;;;;;;21.93;19.02;;;;;;;17.58;41.54;95279.79;825521;70;32714;-79
2021/10/27 08:01:24;;;;;;;22.58;20.23;;;;;;;16.95;41.43;95273.14;836015;71;31730;-78
2021/10/27 08:16:30;;;;;;;17.55;15.78;;;;;;;14.46;45.92;95274.09;829582;70;32110;-78
2021/10/27 08:46:36;;;;;;;13.53;12.28;;;;;;;15.76;43.47;95266.66;835712;70;31786;-79
2021/10/27 09:16:40;;;;;;;13.83;12.43;;;;;;;16.03;43.16;95254.59;835226;70;31705;-78
2021/10/27 09:47:05;;;;;;;11.88;10.65;;;;;;;15.02;44.66;95239.45;835891;71;31780;-80
2021/10/27 10:16:17;;;;;;;12.05;10.88;;;;;;;15.43;43.25;95217.94;835818;70;31692;-79
2021/10/27 10:31:35;;;;;;;11.45;10.35;;;;;;;14.80;44.71;95211.10;827736;71;31871;-79
2021/10/27 11:46:27;;;;;;;10.08;9.18;;;;;;;17.45;41.46;95164.52;835134;70;31763;-75
2021/10/27 12:01:42;;;;;;;11.05;10.05;;;;;;;17.68;40.82;95135.89;835408;71;31817;-81
2021/10/27 13:31:35;;;;;;;11.33;10.32;;;;;;;16.30;41.99;95101.13;827526;71;31791;-77
2021/10/27 13:46:33;;;;;;;10.70;9.70;;;;;;;15.56;43.28;95103.33;825009;71;31840;-79
2021/10/27 15:31:27;;;;;;;20.85;14.03;;;;;;;12.63;50.83;95127.98;822108;71;31658;-78
2021/10/27 16:01:20;;;;;;;27.75;18.73;;;;;;;11.88;53.64;95150.97;828412;71;29200;-80
2021/10/27 16:16:18;;;;;;;24.85;18.80;;;;;;;11.55;55.08;95171.77;828279;71;31879;-78
2021/10/27 16:31:34;;;;;;;30.68;22.35;;;;;;;11.35;56.54;95204.78;829550;71;32462;-79
2021/10/27 16:46:17;;;;;;;51.55;32.75;;;;;;;11.13;57.10;95219.64;834074;71;30765;-78
2021/10/27 17:01:35;;;;;;;32.78;22.37;;;;;;;10.88;58.25;95235.02;823417;71;32773;-78
2021/10/27 17:16:46;;;;;;;30.70;19.77;;;;;;;10.70;59.14;95260.03;817903;71;32905;-77
2021/10/27 17:31:28;;;;;;;27.48;21.12;;;;;;;10.55;60.17;95272.70;824580;71;32842;-79
2021/10/27 17:46:22;;;;;;;26.05;18.32;;;;;;;10.34;60.64;95278.51;821498;71;32854;-80
2021/10/27 18:01:32;;;;;;;173.60;71.53;;;;;;;10.08;61.73;95268.05;815634;71;33330;-79
2021/10/27 18:46:28;;;;;;;35.23;24.67;;;;;;;9.61;64.29;123554.15;820605;71;33416;-78
2021/10/27 19:01:26;;;;;;;24.82;18.57;;;;;;;9.44;64.54;95309.97;825727;71;29703;-76
2021/10/27 19:16:18;;;;;;;27.62;19.50;;;;;;;9.30;65.42;95331.16;827583;71;32734;-79
2021/10/27 19:31:27;;;;;;;31.62;23.15;;;;;;;9.14;66.10;95338.17;828089;71;30651;-79
2021/10/27 21:16:09;;;;;;;28.57;19.07;;;;;;;7.96;69.09;95362.33;827557;71;29691;-78
2021/10/27 21:31:19;;;;;;;24.18;17.23;;;;;;;7.92;69.27;95367.26;826863;71;30251;-76
2021/10/27 21:46:19;;;;;;;29.48;17.85;;;;;;;7.76;69.44;95348.57;833208;71;33244;-77
2021/10/27 22:01:29;;;;;;;23.07;17.73;;;;;;;7.63;69.71;95359.69;828761;71;32758;-78
2021/10/27 22:16:09;;;;;;;26.07;17.70;;;;;;;7.48;70.16;95367.89;833257;71;29957;-79
2021/10/27 22:31:10;;;;;;;31.20;21.45;;;;;;;7.34;70.63;95373.52;819023;70;30020;-79
2021/10/27 22:46:10;;;;;;;28.92;18.45;;;;;;;7.26;70.80;95367.92;827579;71;30254;-78
2021/10/27 23:01:36;;;;;;;24.07;15.88;;;;;;;7.16;71.07;95371.23;827697;71;29312;-77
2021/10/27 23:46:09;;;;;;;24.70;17.90;;;;;;;6.85;71.08;95353.09;833219;71;29736;-77
